sensor_id;sensor_type;location;lat;lon;timestamp;temperature;humidity
15357;DHT22;7778;48.792;9.260;2023-06-19T00:02:29;24.40;76.80
15357;DHT22;7778;48.792;9.260;2023-06-19T00:05:15;24.40;77.20
15357;DHT22;7778;48.792;9.260;2023-06-19T00:08:01;24.50;77.10
15357;DHT22;7778;48.792;9.260;2023-06-19T00:10:49;24.30;77.70
15357;DHT22;7778;48.792;9.260;2023-06-19T00:13:35;24.30;78.10
15357;DHT22;7778;48.792;9.260;2023-06-19T00:16:21;24.30;78.20
15357;DHT22;7778;48.792;9.260;2023-06-19T00:19:09;24.30;78.20
15357;DHT22;7778;48.792;9.260;2023-06-19T00:21:55;24.30;78.30
15357;DHT22;7778;48.792;9.260;2023-06-19T00:24:41;24.30;78.30
15357;DHT22;7778;48.792;9.260;2023-06-19T00:27:28;24.30;78.30
15357;DHT22;7778;48.792;9.260;2023-06-19T00:30:14;24.40;78.40
15357;DHT22;7778;48.792;9.260;2023-06-19T00:33:00;24.50;78.40
15357;DHT22;7778;48.792;9.260;2023-06-19T00:35:46;24.40;78.40
15357;DHT22;7778;48.792;9.260;2023-06-19T00:38:32;24.40;78.90
15357;DHT22;7778;48.792;9.260;2023-06-19T00:41:18;24.50;79.40
15357;DHT22;7778;48.792;9.260;2023-06-19T00:44:08;24.40;80.70
15357;DHT22;7778;48.792;9.260;2023-06-19T00:46:57;24.50;80.10
15357;DHT22;7778;48.792;9.260;2023-06-19T00:49:44;24.50;80.40
15357;DHT22;7778;48.792;9.260;2023-06-19T00:52:30;24.30;80.70
15357;DHT22;7778;48.792;9.260;2023-06-19T00:55:16;24.30;81.30
15357;DHT22;7778;48.792;9.260;2023-06-19T00:58:03;24.30;81.80
15357;DHT22;7778;48.792;9.260;2023-06-19T01:00:50;24.20;82.50
15357;DHT22;7778;48.792;9.260;2023-06-19T01:03:36;24.20;82.80
15357;DHT22;7778;48.792;9.260;2023-06-19T01:06:27;24.30;83.30
15357;DHT22;7778;48.792;9.260;2023-06-19T01:09:22;24.10;83.80
15357;DHT22;7778;48.792;9.260;2023-06-19T01:12:15;24.10;84.30
15357;DHT22;7778;48.792;9.260;2023-06-19T01:15:05;24.10;85.30
15357;DHT22;7778;48.792;9.260;2023-06-19T01:17:56;23.90;86.10
15357;DHT22;7778;48.792;9.260;2023-06-19T01:20:43;23.90;86.80
15357;DHT22;7778;48.792;9.260;2023-06-19T01:23:30;24.10;86.80
15357;DHT22;7778;48.792;9.260;2023-06-19T01:26:17;24.30;88.30
15357;DHT22;7778;48.792;9.260;2023-06-19T01:29:03;24.40;87.60
15357;DHT22;7778;48.792;9.260;2023-06-19T01:31:53;24.40;86.30
15357;DHT22;7778;48.792;9.260;2023-06-19T01:34:40;24.30;85.10
15357;DHT22;7778;48.792;9.260;2023-06-19T01:37:27;24.20;85.60
15357;DHT22;7778;48.792;9.260;2023-06-19T01:40:16;24.20;85.50
15357;DHT22;7778;48.792;9.260;2023-06-19T01:43:05;24.20;86.30
15357;DHT22;7778;48.792;9.260;2023-06-19T01:45:52;24.00;86.30
15357;DHT22;7778;48.792;9.260;2023-06-19T01:48:39;24.00;87.40
15357;DHT22;7778;48.792;9.260;2023-06-19T01:51:25;24.00;87.20
15357;DHT22;7778;48.792;9.260;2023-06-19T01:54:11;24.00;88.70
15357;DHT22;7778;48.792;9.260;2023-06-19T01:56:58;23.90;89.80
15357;DHT22;7778;48.792;9.260;2023-06-19T01:59:44;23.80;89.80
15357;DHT22;7778;48.792;9.260;2023-06-19T02:02:29;23.80;90.30
15357;DHT22;7778;48.792;9.260;2023-06-19T02:05:15;23.80;90.80
15357;DHT22;7778;48.792;9.260;2023-06-19T02:08:01;23.80;91.00
15357;DHT22;7778;48.792;9.260;2023-06-19T02:10:47;23.80;91.50
15357;DHT22;7778;48.792;9.260;2023-06-19T02:13:34;23.60;92.20
15357;DHT22;7778;48.792;9.260;2023-06-19T02:16:20;23.70;93.30
15357;DHT22;7778;48.792;9.260;2023-06-19T02:19:07;23.60;93.70
15357;DHT22;7778;48.792;9.260;2023-06-19T02:21:53;23.60;94.40
15357;DHT22;7778;48.792;9.260;2023-06-19T02:24:38;23.60;95.00
15357;DHT22;7778;48.792;9.260;2023-06-19T02:27:24;23.60;95.20
15357;DHT22;7778;48.792;9.260;2023-06-19T02:30:11;23.60;95.80
15357;DHT22;7778;48.792;9.260;2023-06-19T02:32:58;23.70;96.10
15357;DHT22;7778;48.792;9.260;2023-06-19T02:35:43;23.70;96.10
15357;DHT22;7778;48.792;9.260;2023-06-19T02:38:30;23.70;96.80
15357;DHT22;7778;48.792;9.260;2023-06-19T02:41:16;23.60;97.80
15357;DHT22;7778;48.792;9.260;2023-06-19T02:44:02;23.50;98.70
15357;DHT22;7778;48.792;9.260;2023-06-19T02:46:50;23.40;99.70
15357;DHT22;7778;48.792;9.260;2023-06-19T02:49:35;23.30;99.90
15357;DHT22;7778;48.792;9.260;2023-06-19T02:52:21;23.60;99.90
15357;DHT22;7778;48.792;9.260;2023-06-19T02:55:07;23.40;99.90
15357;DHT22;7778;48.792;9.260;2023-06-19T02:57:53;23.40;99.90
15357;DHT22;7778;48.792;9.260;2023-06-19T03:00:39;23.40;99.90
15357;DHT22;7778;48.792;9.260;2023-06-19T03:03:26;23.40;99.90
15357;DHT22;7778;48.792;9.260;2023-06-19T03:06:12;23.40;99.90
15357;DHT22;7778;48.792;9.260;2023-06-19T03:08:58;23.30;99.90
15357;DHT22;7778;48.792;9.260;2023-06-19T03:11:43;23.20;99.90
15357;DHT22;7778;48.792;9.260;2023-06-19T03:14:29;23.10;99.90
15357;DHT22;7778;48.792;9.260;2023-06-19T03:17:14;23.00;99.90
15357;DHT22;7778;48.792;9.260;2023-06-19T03:20:01;22.80;99.90
15357;DHT22;7778;48.792;9.260;2023-06-19T03:22:49;22.70;99.90
15357;DHT22;7778;48.792;9.260;2023-06-19T03:25:35;22.50;99.90
15357;DHT22;7778;48.792;9.260;2023-06-19T03:28:20;22.60;99.90
15357;DHT22;7778;48.792;9.260;2023-06-19T03:31:06;22.60;99.90
15357;DHT22;7778;48.792;9.260;2023-06-19T03:33:52;22.40;99.90
15357;DHT22;7778;48.792;9.260;2023-06-19T03:36:39;22.30;99.90
15357;DHT22;7778;48.792;9.260;2023-06-19T03:39:24;22.30;99.90
15357;DHT22;7778;48.792;9.260;2023-06-19T03:42:10;22.20;99.90
15357;DHT22;7778;48.792;9.260;2023-06-19T03:44:55;22.20;99.90
15357;DHT22;7778;48.792;9.260;2023-06-19T03:47:40;22.10;99.90
15357;DHT22;7778;48.792;9.260;2023-06-19T03:50:26;22.10;99.90
15357;DHT22;7778;48.792;9.260;2023-06-19T03:53:13;22.20;99.90
15357;DHT22;7778;48.792;9.260;2023-06-19T03:55:59;22.20;99.90
15357;DHT22;7778;48.792;9.260;2023-06-19T03:58:44;22.20;99.90
15357;DHT22;7778;48.792;9.260;2023-06-19T04:01:30;22.30;99.90
15357;DHT22;7778;48.792;9.260;2023-06-19T04:04:15;22.30;99.90
15357;DHT22;7778;48.792;9.260;2023-06-19T04:07:01;22.20;99.90
15357;DHT22;7778;48.792;9.260;2023-06-19T04:09:48;22.20;99.90
15357;DHT22;7778;48.792;9.260;2023-06-19T04:12:33;22.30;99.90
15357;DHT22;7778;48.792;9.260;2023-06-19T04:15:19;22.40;99.90
15357;DHT22;7778;48.792;9.260;2023-06-19T04:18:05;22.40;99.90
15357;DHT22;7778;48.792;9.260;2023-06-19T04:20:51;22.50;99.90
15357;DHT22;7778;48.792;9.260;2023-06-19T04:23:36;22.50;99.90
15357;DHT22;7778;48.792;9.260;2023-06-19T04:26:23;22.50;99.90
15357;DHT22;7778;48.792;9.260;2023-06-19T04:29:09;22.50;99.90
15357;DHT22;7778;48.792;9.260;2023-06-19T04:32:01;22.30;99.90
15357;DHT22;7778;48.792;9.260;2023-06-19T04:34:55;22.20;99.90
15357;DHT22;7778;48.792;9.260;2023-06-19T04:37:41;22.40;99.90
15357;DHT22;7778;48.792;9.260;2023-06-19T04:40:27;22.40;99.90
15357;DHT22;7778;48.792;9.260;2023-06-19T04:43:14;22.40;99.90
15357;DHT22;7778;48.792;9.260;2023-06-19T04:46:00;22.50;99.90
15357;DHT22;7778;48.792;9.260;2023-06-19T04:48:47;22.70;99.90
15357;DHT22;7778;48.792;9.260;2023-06-19T04:51:35;22.70;99.90
15357;DHT22;7778;48.792;9.260;2023-06-19T04:54:20;22.50;99.90
15357;DHT22;7778;48.792;9.260;2023-06-19T04:57:06;22.30;99.90
15357;DHT22;7778;48.792;9.260;2023-06-19T04:59:53;22.60;99.90
15357;DHT22;7778;48.792;9.260;2023-06-19T05:02:38;22.90;99.90
15357;DHT22;7778;48.792;9.260;2023-06-19T05:05:28;23.10;99.90
15357;DHT22;7778;48.792;9.260;2023-06-19T05:08:13;23.50;99.90
15357;DHT22;7778;48.792;9.260;2023-06-19T05:10:59;23.80;99.90
15357;DHT22;7778;48.792;9.260;2023-06-19T05:13:44;24.50;99.90
15357;DHT22;7778;48.792;9.260;2023-06-19T05:16:31;25.80;99.90
15357;DHT22;7778;48.792;9.260;2023-06-19T05:19:18;26.60;99.90
15357;DHT22;7778;48.792;9.260;2023-06-19T05:22:04;27.20;99.90
15357;DHT22;7778;48.792;9.260;2023-06-19T05:24:50;27.90;99.90
15357;DHT22;7778;48.792;9.260;2023-06-19T05:27:35;28.00;99.90
15357;DHT22;7778;48.792;9.260;2023-06-19T05:30:21;26.80;99.90
15357;DHT22;7778;48.792;9.260;2023-06-19T05:33:08;26.00;99.90
15357;DHT22;7778;48.792;9.260;2023-06-19T05:36:00;25.30;99.90
15357;DHT22;7778;48.792;9.260;2023-06-19T05:38:45;24.90;99.90
15357;DHT22;7778;48.792;9.260;2023-06-19T05:41:31;24.80;99.90
15357;DHT22;7778;48.792;9.260;2023-06-19T05:44:16;24.50;99.90
15357;DHT22;7778;48.792;9.260;2023-06-19T05:47:03;24.20;99.90
15357;DHT22;7778;48.792;9.260;2023-06-19T05:49:51;24.00;99.90
15357;DHT22;7778;48.792;9.260;2023-06-19T05:52:37;24.00;99.90
15357;DHT22;7778;48.792;9.260;2023-06-19T05:55:26;24.10;99.90
15357;DHT22;7778;48.792;9.260;2023-06-19T05:58:12;24.20;99.90
15357;DHT22;7778;48.792;9.260;2023-06-19T06:00:57;24.30;99.90
15357;DHT22;7778;48.792;9.260;2023-06-19T06:03:43;24.40;99.90
15357;DHT22;7778;48.792;9.260;2023-06-19T06:06:30;24.50;99.90
15357;DHT22;7778;48.792;9.260;2023-06-19T06:09:15;24.50;99.90
15357;DHT22;7778;48.792;9.260;2023-06-19T06:12:01;24.30;99.90
15357;DHT22;7778;48.792;9.260;2023-06-19T06:14:46;24.10;99.90
15357;DHT22;7778;48.792;9.260;2023-06-19T06:17:32;24.10;99.90
15357;DHT22;7778;48.792;9.260;2023-06-19T06:20:18;24.40;99.90
15357;DHT22;7778;48.792;9.260;2023-06-19T06:23:04;24.70;99.90
15357;DHT22;7778;48.792;9.260;2023-06-19T06:25:50;24.90;99.90
15357;DHT22;7778;48.792;9.260;2023-06-19T06:28:36;24.90;99.90
15357;DHT22;7778;48.792;9.260;2023-06-19T06:31:22;25.20;99.90
15357;DHT22;7778;48.792;9.260;2023-06-19T06:34:08;24.90;99.90
15357;DHT22;7778;48.792;9.260;2023-06-19T06:36:53;24.90;99.90
15357;DHT22;7778;48.792;9.260;2023-06-19T06:39:40;25.50;99.90
15357;DHT22;7778;48.792;9.260;2023-06-19T06:42:26;26.40;99.90
15357;DHT22;7778;48.792;9.260;2023-06-19T06:45:12;27.40;99.90
15357;DHT22;7778;48.792;9.260;2023-06-19T06:47:57;28.70;99.90
15357;DHT22;7778;48.792;9.260;2023-06-19T06:50:43;30.50;99.90
15357;DHT22;7778;48.792;9.260;2023-06-19T06:53:29;31.70;98.90
15357;DHT22;7778;48.792;9.260;2023-06-19T06:56:17;31.90;96.10
15357;DHT22;7778;48.792;9.260;2023-06-19T06:59:03;32.20;95.20
15357;DHT22;7778;48.792;9.260;2023-06-19T07:01:49;32.40;93.30
15357;DHT22;7778;48.792;9.260;2023-06-19T07:04:34;32.70;92.10
15357;DHT22;7778;48.792;9.260;2023-06-19T07:07:20;32.60;91.80
15357;DHT22;7778;48.792;9.260;2023-06-19T07:10:07;32.70;91.40
15357;DHT22;7778;48.792;9.260;2023-06-19T07:12:55;31.60;92.20
15357;DHT22;7778;48.792;9.260;2023-06-19T07:15:41;30.30;92.90
15357;DHT22;7778;48.792;9.260;2023-06-19T07:18:27;29.00;94.30
15357;DHT22;7778;48.792;9.260;2023-06-19T07:21:13;28.20;96.70
15357;DHT22;7778;48.792;9.260;2023-06-19T07:23:59;27.50;97.40
15357;DHT22;7778;48.792;9.260;2023-06-19T07:26:46;26.90;99.40
15357;DHT22;7778;48.792;9.260;2023-06-19T07:29:33;26.80;99.90
15357;DHT22;7778;48.792;9.260;2023-06-19T07:32:18;26.70;99.90
15357;DHT22;7778;48.792;9.260;2023-06-19T07:35:05;26.60;99.90
15357;DHT22;7778;48.792;9.260;2023-06-19T07:37:51;26.50;99.90
15357;DHT22;7778;48.792;9.260;2023-06-19T07:40:37;26.70;99.90
15357;DHT22;7778;48.792;9.260;2023-06-19T07:43:22;26.90;99.90
15357;DHT22;7778;48.792;9.260;2023-06-19T07:46:09;27.40;99.90
15357;DHT22;7778;48.792;9.260;2023-06-19T07:48:55;27.70;99.90
15357;DHT22;7778;48.792;9.260;2023-06-19T07:51:40;29.10;98.70
15357;DHT22;7778;48.792;9.260;2023-06-19T07:54:26;31.30;95.70
15357;DHT22;7778;48.792;9.260;2023-06-19T07:57:11;31.60;92.10
15357;DHT22;7778;48.792;9.260;2023-06-19T07:59:57;30.60;93.20
15357;DHT22;7778;48.792;9.260;2023-06-19T08:02:44;30.20;93.80
15357;DHT22;7778;48.792;9.260;2023-06-19T08:05:29;29.50;94.50
15357;DHT22;7778;48.792;9.260;2023-06-19T08:08:15;29.00;94.70
15357;DHT22;7778;48.792;9.260;2023-06-19T08:11:01;28.50;95.50
15357;DHT22;7778;48.792;9.260;2023-06-19T08:13:47;28.40;96.30
15357;DHT22;7778;48.792;9.260;2023-06-19T08:16:35;28.50;96.10
15357;DHT22;7778;48.792;9.260;2023-06-19T08:19:22;29.10;96.60
15357;DHT22;7778;48.792;9.260;2023-06-19T08:22:08;31.30;93.10
15357;DHT22;7778;48.792;9.260;2023-06-19T08:24:54;32.10;90.10
15357;DHT22;7778;48.792;9.260;2023-06-19T08:27:39;31.50;91.00
15357;DHT22;7778;48.792;9.260;2023-06-19T08:30:25;31.00;92.60
15357;DHT22;7778;48.792;9.260;2023-06-19T08:33:12;29.90;91.80
15357;DHT22;7778;48.792;9.260;2023-06-19T08:35:59;29.10;92.60
15357;DHT22;7778;48.792;9.260;2023-06-19T08:38:45;29.00;93.20
15357;DHT22;7778;48.792;9.260;2023-06-19T08:41:34;29.20;93.90
15357;DHT22;7778;48.792;9.260;2023-06-19T08:44:20;29.20;94.40
15357;DHT22;7778;48.792;9.260;2023-06-19T08:47:06;28.90;94.10
15357;DHT22;7778;48.792;9.260;2023-06-19T08:49:54;28.80;94.40
15357;DHT22;7778;48.792;9.260;2023-06-19T08:52:41;28.90;94.70
15357;DHT22;7778;48.792;9.260;2023-06-19T08:55:26;29.20;94.30
15357;DHT22;7778;48.792;9.260;2023-06-19T08:58:12;29.40;93.60
15357;DHT22;7778;48.792;9.260;2023-06-19T09:01:06;31.10;92.80
15357;DHT22;7778;48.792;9.260;2023-06-19T09:03:53;33.20;90.00
15357;DHT22;7778;48.792;9.260;2023-06-19T09:06:47;34.40;84.10
15357;DHT22;7778;48.792;9.260;2023-06-19T09:09:35;35.50;80.30
15357;DHT22;7778;48.792;9.260;2023-06-19T09:12:20;35.30;77.00
15357;DHT22;7778;48.792;9.260;2023-06-19T09:15:12;35.40;76.60
15357;DHT22;7778;48.792;9.260;2023-06-19T09:18:06;36.30;73.20
15357;DHT22;7778;48.792;9.260;2023-06-19T09:20:55;37.00;70.20
15357;DHT22;7778;48.792;9.260;2023-06-19T09:23:41;37.40;69.30
15357;DHT22;7778;48.792;9.260;2023-06-19T09:26:28;37.40;66.50
15357;DHT22;7778;48.792;9.260;2023-06-19T09:29:14;37.50;65.70
15357;DHT22;7778;48.792;9.260;2023-06-19T09:32:02;37.90;62.50
15357;DHT22;7778;48.792;9.260;2023-06-19T09:34:58;37.80;63.60
15357;DHT22;7778;48.792;9.260;2023-06-19T09:37:45;38.10;63.50
15357;DHT22;7778;48.792;9.260;2023-06-19T09:40:31;38.50;62.00
15357;DHT22;7778;48.792;9.260;2023-06-19T09:43:22;39.00;59.30
15357;DHT22;7778;48.792;9.260;2023-06-19T09:46:10;39.40;59.60
15357;DHT22;7778;48.792;9.260;2023-06-19T09:48:59;39.40;58.10
15357;DHT22;7778;48.792;9.260;2023-06-19T09:51:47;38.70;58.80
15357;DHT22;7778;48.792;9.260;2023-06-19T09:54:36;38.00;58.20
15357;DHT22;7778;48.792;9.260;2023-06-19T09:57:22;36.40;60.30
15357;DHT22;7778;48.792;9.260;2023-06-19T10:00:10;35.20;63.00
15357;DHT22;7778;48.792;9.260;2023-06-19T10:02:59;34.50;66.50
15357;DHT22;7778;48.792;9.260;2023-06-19T10:05:47;33.80;68.40
15357;DHT22;7778;48.792;9.260;2023-06-19T10:08:39;33.90;68.20
15357;DHT22;7778;48.792;9.260;2023-06-19T10:11:25;33.60;68.60
15357;DHT22;7778;48.792;9.260;2023-06-19T10:14:14;33.20;71.20
15357;DHT22;7778;48.792;9.260;2023-06-19T10:17:10;33.30;71.80
15357;DHT22;7778;48.792;9.260;2023-06-19T10:19:59;34.20;71.40
15357;DHT22;7778;48.792;9.260;2023-06-19T10:22:51;35.60;65.70
15357;DHT22;7778;48.792;9.260;2023-06-19T10:25:38;36.10;64.80
15357;DHT22;7778;48.792;9.260;2023-06-19T10:28:25;36.80;63.80
15357;DHT22;7778;48.792;9.260;2023-06-19T10:31:12;37.20;63.40
15357;DHT22;7778;48.792;9.260;2023-06-19T10:33:59;36.30;64.20
15357;DHT22;7778;48.792;9.260;2023-06-19T10:36:45;36.40;64.80
15357;DHT22;7778;48.792;9.260;2023-06-19T10:39:31;36.10;64.50
15357;DHT22;7778;48.792;9.260;2023-06-19T10:42:16;35.50;65.40
15357;DHT22;7778;48.792;9.260;2023-06-19T10:45:03;35.70;63.70
15357;DHT22;7778;48.792;9.260;2023-06-19T10:47:50;36.20;59.90
15357;DHT22;7778;48.792;9.260;2023-06-19T10:50:38;35.70;60.80
15357;DHT22;7778;48.792;9.260;2023-06-19T10:53:29;34.60;64.20
15357;DHT22;7778;48.792;9.260;2023-06-19T10:56:20;34.00;68.80
15357;DHT22;7778;48.792;9.260;2023-06-19T10:59:07;33.80;69.40
15357;DHT22;7778;48.792;9.260;2023-06-19T11:01:54;33.40;69.60
15357;DHT22;7778;48.792;9.260;2023-06-19T11:04:40;33.40;69.40
15357;DHT22;7778;48.792;9.260;2023-06-19T11:07:27;33.40;70.80
15357;DHT22;7778;48.792;9.260;2023-06-19T11:10:19;33.10;72.20
15357;DHT22;7778;48.792;9.260;2023-06-19T11:13:06;32.90;75.60
15357;DHT22;7778;48.792;9.260;2023-06-19T11:15:52;33.00;73.30
15357;DHT22;7778;48.792;9.260;2023-06-19T11:18:37;33.00;74.20
15357;DHT22;7778;48.792;9.260;2023-06-19T11:21:29;32.70;76.00
15357;DHT22;7778;48.792;9.260;2023-06-19T11:24:19;32.70;75.90
15357;DHT22;7778;48.792;9.260;2023-06-19T11:27:06;32.70;75.90
15357;DHT22;7778;48.792;9.260;2023-06-19T11:29:55;33.30;76.50
15357;DHT22;7778;48.792;9.260;2023-06-19T11:32:42;34.10;73.40
15357;DHT22;7778;48.792;9.260;2023-06-19T11:35:33;35.00;70.70
15357;DHT22;7778;48.792;9.260;2023-06-19T11:38:24;35.30;69.00
15357;DHT22;7778;48.792;9.260;2023-06-19T11:41:11;35.10;68.70
15357;DHT22;7778;48.792;9.260;2023-06-19T11:44:05;34.80;68.80
15357;DHT22;7778;48.792;9.260;2023-06-19T11:46:56;34.00;69.80
15357;DHT22;7778;48.792;9.260;2023-06-19T11:49:42;32.10;72.20
15357;DHT22;7778;48.792;9.260;2023-06-19T11:52:28;31.90;76.40
15357;DHT22;7778;48.792;9.260;2023-06-19T11:55:14;31.90;76.30
15357;DHT22;7778;48.792;9.260;2023-06-19T11:58:02;31.80;76.10
15357;DHT22;7778;48.792;9.260;2023-06-19T12:00:48;32.20;77.00
15357;DHT22;7778;48.792;9.260;2023-06-19T12:03:34;32.80;73.80
15357;DHT22;7778;48.792;9.260;2023-06-19T12:06:20;32.40;74.60
15357;DHT22;7778;48.792;9.260;2023-06-19T12:09:06;32.20;74.50
15357;DHT22;7778;48.792;9.260;2023-06-19T12:11:51;32.70;74.70
15357;DHT22;7778;48.792;9.260;2023-06-19T12:14:38;32.90;74.60
15357;DHT22;7778;48.792;9.260;2023-06-19T12:17:24;33.30;75.70
15357;DHT22;7778;48.792;9.260;2023-06-19T12:20:11;33.40;75.70
15357;DHT22;7778;48.792;9.260;2023-06-19T12:22:57;33.30;74.30
15357;DHT22;7778;48.792;9.260;2023-06-19T12:25:43;32.90;72.20
15357;DHT22;7778;48.792;9.260;2023-06-19T12:35:28;32.40;77.40
15357;DHT22;7778;48.792;9.260;2023-06-19T12:38:14;32.70;78.00
15357;DHT22;7778;48.792;9.260;2023-06-19T12:41:00;32.90;75.10
15357;DHT22;7778;48.792;9.260;2023-06-19T12:46:34;32.50;75.00
15357;DHT22;7778;48.792;9.260;2023-06-19T12:49:19;32.20;75.30
15357;DHT22;7778;48.792;9.260;2023-06-19T12:52:07;31.90;75.90
15357;DHT22;7778;48.792;9.260;2023-06-19T12:54:53;31.20;76.60
15357;DHT22;7778;48.792;9.260;2023-06-19T12:57:38;30.70;79.60
15357;DHT22;7778;48.792;9.260;2023-06-19T13:00:24;30.70;80.10
15357;DHT22;7778;48.792;9.260;2023-06-19T13:03:10;30.60;79.60
15357;DHT22;7778;48.792;9.260;2023-06-19T13:05:55;30.70;79.70
15357;DHT22;7778;48.792;9.260;2023-06-19T13:08:42;30.00;79.40
15357;DHT22;7778;48.792;9.260;2023-06-19T13:11:29;29.90;81.40
15357;DHT22;7778;48.792;9.260;2023-06-19T13:14:14;30.10;81.00
15357;DHT22;7778;48.792;9.260;2023-06-19T13:17:00;30.10;79.60
15357;DHT22;7778;48.792;9.260;2023-06-19T13:19:45;30.10;79.40
15357;DHT22;7778;48.792;9.260;2023-06-19T13:22:31;30.00;78.10
15357;DHT22;7778;48.792;9.260;2023-06-19T13:25:18;30.40;78.30
15357;DHT22;7778;48.792;9.260;2023-06-19T13:28:03;30.60;78.50
15357;DHT22;7778;48.792;9.260;2023-06-19T13:30:50;30.70;76.70
15357;DHT22;7778;48.792;9.260;2023-06-19T13:33:35;30.80;76.90
15357;DHT22;7778;48.792;9.260;2023-06-19T13:36:21;30.90;76.40
15357;DHT22;7778;48.792;9.260;2023-06-19T13:39:08;31.20;77.20
15357;DHT22;7778;48.792;9.260;2023-06-19T13:41:54;31.30;73.80
15357;DHT22;7778;48.792;9.260;2023-06-19T13:44:40;31.00;76.80
15357;DHT22;7778;48.792;9.260;2023-06-19T13:47:26;31.20;76.30
15357;DHT22;7778;48.792;9.260;2023-06-19T13:50:11;31.40;78.30
15357;DHT22;7778;48.792;9.260;2023-06-19T13:53:02;31.20;76.10
15357;DHT22;7778;48.792;9.260;2023-06-19T13:55:47;30.90;78.50
15357;DHT22;7778;48.792;9.260;2023-06-19T13:58:34;30.80;78.90
15357;DHT22;7778;48.792;9.260;2023-06-19T14:01:20;30.70;79.30
15357;DHT22;7778;48.792;9.260;2023-06-19T14:04:06;30.40;78.00
15357;DHT22;7778;48.792;9.260;2023-06-19T14:06:52;30.50;78.50
15357;DHT22;7778;48.792;9.260;2023-06-19T14:09:39;30.40;78.20
15357;DHT22;7778;48.792;9.260;2023-06-19T14:12:25;30.90;80.60
15357;DHT22;7778;48.792;9.260;2023-06-19T14:15:12;31.30;77.10
15357;DHT22;7778;48.792;9.260;2023-06-19T14:17:58;30.90;76.80
15357;DHT22;7778;48.792;9.260;2023-06-19T14:20:43;30.60;77.40
15357;DHT22;7778;48.792;9.260;2023-06-19T14:23:29;30.70;78.90
15357;DHT22;7778;48.792;9.260;2023-06-19T14:26:15;31.10;78.70
15357;DHT22;7778;48.792;9.260;2023-06-19T14:29:03;31.30;77.40
15357;DHT22;7778;48.792;9.260;2023-06-19T14:31:52;31.20;75.90
15357;DHT22;7778;48.792;9.260;2023-06-19T14:34:38;31.30;78.10
15357;DHT22;7778;48.792;9.260;2023-06-19T14:37:23;31.50;77.00
15357;DHT22;7778;48.792;9.260;2023-06-19T14:40:10;31.60;78.00
15357;DHT22;7778;48.792;9.260;2023-06-19T14:42:56;31.60;75.30
15357;DHT22;7778;48.792;9.260;2023-06-19T14:45:41;31.60;76.70
15357;DHT22;7778;48.792;9.260;2023-06-19T14:48:28;31.60;78.50
15357;DHT22;7778;48.792;9.260;2023-06-19T14:51:15;31.40;81.00
15357;DHT22;7778;48.792;9.260;2023-06-19T14:54:01;31.50;80.60
15357;DHT22;7778;48.792;9.260;2023-06-19T14:56:46;31.30;78.40
15357;DHT22;7778;48.792;9.260;2023-06-19T14:59:34;31.00;76.90
15357;DHT22;7778;48.792;9.260;2023-06-19T15:02:20;30.80;77.90
15357;DHT22;7778;48.792;9.260;2023-06-19T15:05:07;30.90;80.20
15357;DHT22;7778;48.792;9.260;2023-06-19T15:07:53;30.90;81.10
15357;DHT22;7778;48.792;9.260;2023-06-19T15:10:39;31.00;79.70
15357;DHT22;7778;48.792;9.260;2023-06-19T15:13:24;31.00;79.90
15357;DHT22;7778;48.792;9.260;2023-06-19T15:16:10;31.00;82.00
15357;DHT22;7778;48.792;9.260;2023-06-19T15:18:56;30.90;79.50
15357;DHT22;7778;48.792;9.260;2023-06-19T15:21:43;30.50;80.90
15357;DHT22;7778;48.792;9.260;2023-06-19T15:24:29;30.50;82.50
15357;DHT22;7778;48.792;9.260;2023-06-19T15:27:14;30.70;81.20
15357;DHT22;7778;48.792;9.260;2023-06-19T15:30:00;30.80;81.70
15357;DHT22;7778;48.792;9.260;2023-06-19T15:32:46;31.00;82.20
15357;DHT22;7778;48.792;9.260;2023-06-19T15:35:32;31.10;80.90
15357;DHT22;7778;48.792;9.260;2023-06-19T15:38:18;31.10;79.10
15357;DHT22;7778;48.792;9.260;2023-06-19T15:41:04;31.20;80.70
15357;DHT22;7778;48.792;9.260;2023-06-19T15:43:50;31.10;80.70
15357;DHT22;7778;48.792;9.260;2023-06-19T15:46:36;31.10;78.90
15357;DHT22;7778;48.792;9.260;2023-06-19T15:49:21;30.70;79.70
15357;DHT22;7778;48.792;9.260;2023-06-19T15:52:07;30.60;80.00
15357;DHT22;7778;48.792;9.260;2023-06-19T15:54:54;30.60;81.40
15357;DHT22;7778;48.792;9.260;2023-06-19T15:57:40;30.90;81.40
15357;DHT22;7778;48.792;9.260;2023-06-19T16:00:25;31.00;81.00
15357;DHT22;7778;48.792;9.260;2023-06-19T16:03:10;31.20;81.80
15357;DHT22;7778;48.792;9.260;2023-06-19T16:05:56;31.40;79.80
15357;DHT22;7778;48.792;9.260;2023-06-19T16:08:43;31.40;81.10
15357;DHT22;7778;48.792;9.260;2023-06-19T16:11:30;30.90;78.10
15357;DHT22;7778;48.792;9.260;2023-06-19T16:14:16;30.60;80.30
15357;DHT22;7778;48.792;9.260;2023-06-19T16:17:02;30.70;80.10
15357;DHT22;7778;48.792;9.260;2023-06-19T16:19:48;30.60;79.80
15357;DHT22;7778;48.792;9.260;2023-06-19T16:22:44;30.50;80.30
15357;DHT22;7778;48.792;9.260;2023-06-19T16:25:29;30.30;81.60
15357;DHT22;7778;48.792;9.260;2023-06-19T16:28:16;30.30;81.50
15357;DHT22;7778;48.792;9.260;2023-06-19T16:31:02;30.10;81.80
15357;DHT22;7778;48.792;9.260;2023-06-19T16:33:48;30.10;83.30
15357;DHT22;7778;48.792;9.260;2023-06-19T16:36:34;30.00;84.40
15357;DHT22;7778;48.792;9.260;2023-06-19T16:39:19;30.00;83.50
15357;DHT22;7778;48.792;9.260;2023-06-19T16:42:05;30.00;83.80
15357;DHT22;7778;48.792;9.260;2023-06-19T16:44:53;30.00;84.60
15357;DHT22;7778;48.792;9.260;2023-06-19T16:47:39;30.20;85.10
15357;DHT22;7778;48.792;9.260;2023-06-19T16:50:25;30.40;82.90
15357;DHT22;7778;48.792;9.260;2023-06-19T16:53:11;30.50;84.40
15357;DHT22;7778;48.792;9.260;2023-06-19T16:55:57;30.30;86.60
15357;DHT22;7778;48.792;9.260;2023-06-19T16:58:43;30.20;87.80
15357;DHT22;7778;48.792;9.260;2023-06-19T17:01:30;29.90;89.10
15357;DHT22;7778;48.792;9.260;2023-06-19T17:04:15;29.70;90.10
15357;DHT22;7778;48.792;9.260;2023-06-19T17:07:01;29.50;90.70
15357;DHT22;7778;48.792;9.260;2023-06-19T17:09:46;29.40;90.90
15357;DHT22;7778;48.792;9.260;2023-06-19T17:12:32;29.20;91.10
15357;DHT22;7778;48.792;9.260;2023-06-19T17:15:17;29.10;91.70
15357;DHT22;7778;48.792;9.260;2023-06-19T17:18:04;29.00;91.60
15357;DHT22;7778;48.792;9.260;2023-06-19T17:20:50;28.80;92.30
15357;DHT22;7778;48.792;9.260;2023-06-19T17:23:36;28.60;93.00
15357;DHT22;7778;48.792;9.260;2023-06-19T17:26:21;28.40;93.60
15357;DHT22;7778;48.792;9.260;2023-06-19T17:29:07;28.40;94.10
15357;DHT22;7778;48.792;9.260;2023-06-19T17:31:52;28.30;94.40
15357;DHT22;7778;48.792;9.260;2023-06-19T17:34:39;28.10;94.70
15357;DHT22;7778;48.792;9.260;2023-06-19T17:37:25;27.90;95.30
15357;DHT22;7778;48.792;9.260;2023-06-19T17:40:11;27.50;96.40
15357;DHT22;7778;48.792;9.260;2023-06-19T17:42:57;27.50;97.60
15357;DHT22;7778;48.792;9.260;2023-06-19T17:45:43;27.40;98.20
15357;DHT22;7778;48.792;9.260;2023-06-19T17:48:29;27.40;99.00
15357;DHT22;7778;48.792;9.260;2023-06-19T17:51:16;27.30;99.90
15357;DHT22;7778;48.792;9.260;2023-06-19T17:54:01;27.40;99.90
15357;DHT22;7778;48.792;9.260;2023-06-19T17:56:47;27.40;99.90
15357;DHT22;7778;48.792;9.260;2023-06-19T17:59:33;27.60;99.90